createdAt,value
2022-09-28T00:02:10.396Z,2.93
2022-09-28T00:04:37.825Z,3.03
2022-09-28T00:07:05.218Z,2.07
2022-09-28T00:09:32.610Z,2.07
2022-09-28T00:12:00.028Z,3.53
2022-09-28T00:14:29.234Z,2.87
2022-09-28T00:16:56.659Z,2.97
2022-09-28T00:19:24.075Z,2.67
2022-09-28T00:21:51.617Z,2.90
2022-09-28T00:24:24.052Z,3.37
2022-09-28T00:26:55.850Z,2.63
2022-09-28T00:29:26.463Z,2.67
2022-09-28T00:31:59.949Z,2.97
2022-09-28T00:34:27.980Z,2.53
2022-09-28T00:36:55.379Z,2.40
2022-09-28T00:39:22.899Z,3.13
2022-09-28T00:41:51.066Z,2.50
2022-09-28T00:44:41.471Z,3.10
2022-09-28T00:47:25.722Z,2.23
2022-09-28T00:49:57.982Z,2.90
2022-09-28T00:52:29.254Z,2.70
2022-09-28T00:54:59.230Z,4.17
2022-09-28T00:57:27.190Z,2.40
2022-09-28T00:59:55.366Z,2.90
2022-09-28T01:02:24.189Z,2.87
2022-09-28T01:04:52.709Z,2.50
2022-09-28T01:07:20.470Z,3.17
2022-09-28T01:09:47.968Z,2.60
2022-09-28T01:12:16.190Z,2.40
2022-09-28T01:14:45.126Z,2.47
2022-09-28T01:17:16.554Z,2.57
2022-09-28T01:20:11.790Z,2.87
2022-09-28T01:23:04.188Z,3.20
2022-09-28T01:25:42.214Z,2.70
2022-09-28T01:28:15.158Z,2.67
2022-09-28T01:30:48.042Z,2.33
2022-09-28T01:33:21.854Z,2.40
2022-09-28T01:35:55.555Z,2.50
2022-09-28T01:38:26.375Z,2.50
2022-09-28T01:40:56.569Z,2.40
2022-09-28T01:43:28.017Z,2.20
2022-09-28T01:45:58.520Z,2.47
2022-09-28T01:48:31.962Z,1.87
2022-09-28T01:51:04.022Z,2.07
2022-09-28T01:53:37.790Z,1.90
2022-09-28T01:56:10.616Z,1.90
2022-09-28T01:58:44.990Z,1.90
2022-09-28T02:01:17.237Z,2.13
2022-09-28T02:03:53.683Z,2.10
2022-09-28T02:06:25.363Z,1.90
2022-09-28T02:08:57.300Z,2.40
2022-09-28T02:11:24.834Z,1.77
2022-09-28T02:13:58.085Z,1.80
2022-09-28T02:16:34.479Z,1.77
2022-09-28T02:19:03.498Z,1.97
2022-09-28T02:21:39.298Z,1.80
2022-09-28T02:24:11.822Z,2.20
2022-09-28T02:26:43.933Z,2.00
2022-09-28T02:29:13.007Z,2.00
2022-09-28T02:31:40.605Z,1.90
2022-09-28T02:34:08.159Z,1.77
2022-09-28T02:36:35.821Z,1.63
2022-09-28T02:39:03.547Z,2.10
2022-09-28T02:41:47.103Z,1.53
2022-09-28T02:44:33.223Z,1.40
2022-09-28T02:47:05.573Z,1.30
2022-09-28T02:49:41.272Z,1.30
2022-09-28T02:52:38.196Z,1.23
2022-09-28T02:55:20.084Z,1.10
2022-09-28T02:57:59.917Z,1.03
2022-09-28T03:00:32.481Z,1.23
2022-09-28T03:03:10.036Z,0.80
2022-09-28T03:05:45.939Z,1.20
2022-09-28T03:08:21.903Z,1.20
2022-09-28T03:10:54.745Z,1.23
2022-09-28T03:13:22.955Z,2.40
2022-09-28T03:15:51.710Z,1.20
2022-09-28T03:18:19.243Z,1.27
2022-09-28T03:20:49.362Z,1.30
2022-09-28T03:23:25.284Z,1.20
2022-09-28T03:25:53.073Z,1.40
2022-09-28T03:28:21.158Z,1.00
2022-09-28T03:30:48.583Z,1.30
2022-09-28T03:33:17.323Z,1.13
2022-09-28T03:35:47.742Z,1.37
2022-09-28T03:38:15.213Z,1.20
2022-09-28T03:40:42.721Z,2.33
2022-09-28T03:43:10.167Z,1.20
2022-09-28T03:45:37.598Z,1.00
2022-09-28T03:48:05.181Z,1.20
2022-09-28T03:50:33.976Z,1.20
2022-09-28T03:53:05.182Z,1.40
2022-09-28T03:55:33.247Z,0.90
2022-09-28T03:58:00.678Z,0.80
2022-09-28T04:00:28.509Z,1.10
2022-09-28T04:02:55.901Z,0.90
2022-09-28T04:05:23.310Z,0.80
2022-09-28T04:07:53.738Z,0.70
2022-09-28T04:10:21.149Z,0.70
2022-09-28T04:12:49.635Z,0.60
2022-09-28T04:15:17.087Z,1.63
2022-09-28T04:17:44.719Z,0.70
2022-09-28T04:20:12.154Z,0.67
2022-09-28T04:22:39.618Z,0.90
2022-09-28T04:25:09.114Z,1.40
2022-09-28T04:27:50.678Z,1.03
2022-09-28T04:30:18.605Z,2.30
2022-09-28T04:32:47.145Z,1.00
2022-09-28T04:35:15.235Z,0.90
2022-09-28T04:37:42.633Z,2.10
2022-09-28T04:40:11.872Z,1.73
2022-09-28T04:42:39.269Z,1.97
2022-09-28T04:45:08.037Z,1.10
2022-09-28T04:47:35.451Z,1.13
2022-09-28T04:50:02.883Z,0.80
2022-09-28T04:52:30.273Z,1.00
2022-09-28T04:54:57.683Z,1.20
2022-09-28T04:57:26.432Z,1.00
2022-09-28T04:59:53.821Z,1.00
2022-09-28T05:02:22.338Z,2.53
2022-09-28T05:04:49.824Z,1.43
2022-09-28T05:07:17.377Z,0.97
2022-09-28T05:09:44.800Z,1.10
2022-09-28T05:12:12.271Z,1.40
2022-09-28T05:14:41.879Z,1.20
2022-09-28T05:17:10.448Z,1.47
2022-09-28T05:19:37.920Z,1.30
2022-09-28T05:22:07.114Z,1.10
2022-09-28T05:24:34.604Z,1.17
2022-09-28T05:27:02.018Z,1.23
2022-09-28T05:29:32.272Z,1.40
2022-09-28T05:32:02.167Z,1.43
2022-09-28T05:34:29.991Z,1.00
2022-09-28T05:36:57.471Z,1.20
2022-09-28T05:39:24.938Z,0.97
2022-09-28T05:41:52.366Z,0.90
2022-09-28T05:44:19.847Z,1.13
2022-09-28T05:46:47.259Z,1.57
2022-09-28T05:49:16.138Z,0.93
2022-09-28T05:51:43.566Z,1.53
2022-09-28T05:54:11.025Z,1.90
2022-09-28T05:56:38.442Z,2.37
2022-09-28T05:59:06.114Z,3.63
2022-09-28T06:01:33.686Z,3.27
2022-09-28T06:04:01.555Z,1.70
2022-09-28T06:06:30.442Z,1.97
2022-09-28T06:08:57.837Z,1.13
2022-09-28T06:11:27.731Z,1.43
2022-09-28T06:13:56.018Z,1.33
2022-09-28T06:16:24.256Z,1.03
2022-09-28T06:18:51.947Z,1.23
2022-09-28T06:21:19.394Z,1.60
2022-09-28T06:23:49.440Z,1.47
2022-09-28T06:26:17.366Z,1.67
2022-09-28T06:28:44.942Z,1.43
2022-09-28T06:31:12.412Z,1.20
2022-09-28T06:33:41.985Z,1.90
2022-09-28T06:36:09.512Z,2.43
2022-09-28T06:38:37.008Z,1.67
2022-09-28T06:41:06.479Z,2.10
2022-09-28T06:43:34.956Z,1.83
2022-09-28T06:46:03.261Z,1.20
2022-09-28T06:48:32.499Z,1.10
2022-09-28T06:51:00.547Z,1.73
2022-09-28T06:53:29.072Z,1.73
2022-09-28T06:55:57.794Z,1.20
2022-09-28T06:58:28.099Z,2.03
2022-09-28T07:00:58.525Z,2.40
2022-09-28T07:03:26.027Z,1.27
2022-09-28T07:05:55.706Z,1.17
2022-09-28T07:08:25.763Z,1.40
2022-09-28T07:10:56.164Z,3.43
2022-09-28T07:13:50.335Z,1.97
2022-09-28T07:16:15.336Z,1.10
2022-09-28T07:18:42.866Z,1.47
2022-09-28T07:21:21.988Z,1.33
2022-09-28T07:23:54.209Z,1.33
2022-09-28T07:26:24.319Z,1.07
2022-09-28T07:28:54.143Z,2.67
2022-09-28T07:31:21.603Z,1.80
2022-09-28T07:33:51.057Z,1.60
2022-09-28T07:36:20.808Z,1.20
2022-09-28T07:38:48.769Z,1.00
2022-09-28T07:41:21.415Z,1.90
2022-09-28T07:43:49.648Z,1.33
2022-09-28T07:46:18.435Z,1.10
2022-09-28T07:48:46.079Z,1.00
2022-09-28T07:51:13.574Z,2.27
2022-09-28T07:53:41.045Z,1.00
2022-09-28T07:56:09.661Z,1.33
2022-09-28T07:58:38.459Z,1.20
2022-09-28T08:01:07.879Z,1.00
2022-09-28T08:03:37.339Z,2.80
2022-09-28T08:06:06.933Z,1.23
2022-09-28T08:08:35.561Z,1.97
2022-09-28T08:11:03.585Z,1.97
2022-09-28T08:13:31.010Z,0.80
2022-09-28T08:16:02.646Z,1.00
2022-09-28T08:18:30.561Z,0.90
2022-09-28T08:21:17.288Z,1.20
2022-09-28T08:23:44.731Z,1.90
2022-09-28T08:26:15.424Z,1.30
2022-09-28T08:28:44.885Z,1.63
2022-09-28T08:31:12.336Z,1.57
2022-09-28T08:33:40.252Z,0.80
2022-09-28T08:36:10.990Z,1.00
2022-09-28T08:38:38.444Z,1.10
2022-09-28T08:41:19.935Z,0.83
2022-09-28T08:44:01.791Z,1.03
2022-09-28T08:46:34.183Z,1.37
2022-09-28T08:52:01.592Z,2.07
2022-09-28T08:54:38.866Z,3.07
2022-09-28T08:57:11.866Z,7.20
2022-09-28T08:59:47.724Z,4.00
2022-09-28T09:02:19.145Z,1.93
2022-09-28T09:04:46.738Z,0.70
2022-09-28T09:07:29.435Z,1.50
2022-09-28T09:10:04.933Z,1.33
2022-09-28T09:12:39.975Z,2.17
2022-09-28T09:15:25.914Z,1.30
2022-09-28T09:18:07.220Z,0.52
2022-09-28T09:20:42.702Z,0.65
2022-09-28T09:23:20.194Z,0.77
2022-09-28T09:25:53.043Z,1.20
2022-09-28T09:28:40.763Z,1.60
2022-09-28T09:31:22.669Z,0.70
2022-09-28T09:34:13.829Z,1.63
2022-09-28T09:36:56.434Z,1.30
2022-09-28T09:39:41.982Z,0.60
2022-09-28T09:42:23.499Z,1.30
2022-09-28T09:45:19.763Z,0.60
2022-09-28T09:47:53.562Z,0.60
2022-09-28T09:50:29.890Z,0.63
2022-09-28T09:53:01.948Z,1.20
2022-09-28T09:55:35.206Z,1.43
2022-09-28T09:58:10.244Z,0.80
2022-09-28T10:00:41.926Z,1.83
2022-09-28T10:03:19.625Z,1.17
2022-09-28T10:05:51.332Z,0.97
2022-09-28T10:08:23.700Z,1.47
2022-09-28T10:10:55.213Z,1.13
2022-09-28T10:13:23.155Z,1.60
2022-09-28T10:15:51.497Z,0.97
2022-09-28T10:18:21.973Z,0.53
2022-09-28T10:20:49.962Z,1.90
2022-09-28T10:23:23.778Z,1.17
2022-09-28T10:25:55.020Z,1.53
2022-09-28T10:28:30.319Z,0.60
2022-09-28T10:30:57.868Z,0.73
2022-09-28T10:33:30.347Z,0.68
2022-09-28T10:35:58.391Z,0.63
2022-09-28T10:38:25.838Z,0.45
2022-09-28T10:40:56.270Z,0.70
2022-09-28T10:43:26.803Z,0.97
2022-09-28T10:46:08.067Z,1.17
2022-09-28T10:48:49.978Z,0.97
2022-09-28T10:51:18.191Z,0.60
2022-09-28T10:53:59.814Z,0.57
2022-09-28T10:56:32.682Z,0.97
2022-09-28T10:59:00.095Z,0.60
2022-09-28T11:01:33.022Z,0.67
2022-09-28T11:04:02.787Z,0.80
2022-09-28T11:06:31.739Z,0.70
2022-09-28T11:09:02.662Z,0.57
2022-09-28T11:11:32.298Z,0.63
2022-09-28T11:14:02.553Z,0.60
2022-09-28T11:16:32.292Z,1.33
2022-09-28T11:19:05.454Z,2.60
2022-09-28T11:21:42.706Z,0.87
2022-09-28T11:24:21.500Z,0.93
2022-09-28T11:26:53.390Z,1.37
2022-09-28T11:29:24.389Z,0.70
2022-09-28T11:31:52.792Z,1.80
2022-09-28T11:34:36.187Z,0.80
2022-09-28T11:37:31.650Z,1.40
2022-09-28T11:40:11.717Z,0.80
2022-09-28T11:42:50.444Z,2.00
2022-09-28T11:45:33.158Z,0.50
2022-09-28T11:48:03.788Z,0.40
2022-09-28T11:50:46.420Z,0.60
2022-09-28T11:53:23.843Z,0.87
2022-09-28T11:55:59.192Z,0.77
2022-09-28T11:58:32.266Z,0.40
2022-09-28T12:01:03.666Z,0.50
2022-09-28T12:03:38.647Z,0.60
2022-09-28T12:06:10.188Z,0.30
2022-09-28T12:08:44.294Z,0.70
2022-09-28T12:11:18.826Z,0.93
2022-09-28T12:13:49.005Z,0.80
2022-09-28T12:19:16.817Z,0.50
2022-09-28T12:21:51.229Z,1.00
2022-09-28T12:24:22.495Z,0.97
2022-09-28T12:26:55.016Z,0.33
2022-09-28T12:29:28.685Z,0.63
2022-09-28T12:32:06.679Z,0.70
2022-09-28T12:34:34.181Z,0.60
2022-09-28T12:37:16.629Z,0.63
2022-09-28T12:40:09.920Z,0.40
2022-09-28T12:42:56.652Z,0.50
2022-09-28T12:45:53.181Z,1.15
2022-09-28T12:48:39.182Z,0.80
2022-09-28T12:51:19.371Z,0.30
2022-09-28T12:54:01.557Z,0.82
2022-09-28T12:56:38.635Z,0.47
2022-09-28T12:59:19.452Z,0.50
2022-09-28T13:02:18.674Z,0.30
2022-09-28T13:05:14.329Z,0.57
2022-09-28T13:07:53.858Z,0.80
2022-09-28T13:10:32.458Z,0.40
2022-09-28T13:13:23.340Z,0.40
2022-09-28T13:15:56.829Z,1.37
2022-09-28T13:18:34.802Z,1.30
2022-09-28T13:21:15.984Z,1.20
2022-09-28T13:23:45.201Z,1.13
2022-09-28T13:26:22.579Z,0.70
2022-09-28T13:28:51.503Z,0.70
2022-09-28T13:31:24.966Z,0.97
2022-09-28T13:33:58.508Z,0.90
2022-09-28T13:36:43.472Z,0.75
2022-09-28T13:39:39.621Z,0.93
2022-09-28T13:42:10.214Z,0.68
2022-09-28T13:45:04.092Z,3.08
2022-09-28T13:47:46.833Z,0.80
2022-09-28T13:50:27.837Z,0.77
2022-09-28T13:53:06.400Z,0.70
2022-09-28T13:55:42.978Z,1.02
2022-09-28T13:58:18.191Z,1.20
2022-09-28T14:00:51.310Z,0.80
2022-09-28T14:03:28.502Z,1.95
2022-09-28T14:06:23.094Z,0.63
2022-09-28T14:09:23.858Z,0.40
2022-09-28T14:12:00.382Z,0.70
2022-09-28T14:14:48.354Z,0.65
2022-09-28T14:18:01.609Z,0.88
2022-09-28T14:20:31.710Z,1.65
2022-09-28T14:23:22.181Z,0.57
2022-09-28T14:26:05.441Z,0.60
2022-09-28T14:28:46.506Z,0.43
2022-09-28T14:31:20.319Z,0.47
2022-09-28T14:33:57.745Z,0.40
2022-09-28T14:36:42.176Z,0.57
2022-09-28T14:39:40.538Z,0.50
2022-09-28T14:42:18.572Z,0.70
2022-09-28T14:45:20.866Z,1.27
2022-09-28T14:48:13.807Z,0.70
2022-09-28T14:50:41.293Z,0.77
2022-09-28T14:53:13.362Z,0.63
2022-09-28T14:55:50.086Z,0.63
2022-09-28T14:58:22.497Z,1.00
2022-09-28T15:01:00.887Z,0.40
2022-09-28T15:03:31.292Z,0.40
2022-09-28T15:05:59.454Z,1.13
2022-09-28T15:08:37.799Z,0.50
2022-09-28T15:11:07.971Z,0.67
2022-09-28T15:13:35.446Z,1.17
2022-09-28T15:16:07.079Z,1.43
2022-09-28T15:19:10.367Z,0.50
2022-09-28T15:21:40.651Z,0.50
2022-09-28T15:24:27.032Z,1.10
2022-09-28T15:26:56.618Z,0.50
2022-09-28T15:29:25.451Z,0.97
2022-09-28T15:31:54.636Z,0.60
2022-09-28T15:34:50.742Z,0.40
2022-09-28T15:37:21.814Z,0.80
2022-09-28T15:39:50.890Z,0.63
2022-09-28T15:42:20.235Z,0.60
2022-09-28T15:45:03.319Z,0.40
2022-09-28T15:47:32.776Z,0.50
2022-09-28T15:50:02.479Z,0.60
2022-09-28T15:52:36.411Z,0.77
2022-09-28T15:55:07.040Z,0.50
2022-09-28T15:57:38.562Z,0.60
2022-09-28T16:00:08.706Z,0.60
2022-09-28T16:02:36.434Z,0.80
2022-09-28T16:05:05.084Z,0.73
2022-09-28T16:07:38.296Z,1.47
2022-09-28T16:10:33.571Z,0.50
2022-09-28T16:13:15.392Z,0.97
2022-09-28T16:15:43.498Z,0.40
2022-09-28T16:18:21.967Z,0.90
2022-09-28T16:20:51.802Z,0.50
2022-09-28T16:23:23.975Z,0.40
2022-09-28T16:25:55.459Z,0.37
2022-09-28T16:28:51.548Z,0.90
2022-09-28T16:31:41.252Z,2.07
2022-09-28T16:34:17.150Z,0.73
2022-09-28T16:36:47.080Z,1.77
2022-09-28T16:39:16.221Z,0.60
2022-09-28T16:41:47.865Z,0.70
2022-09-28T16:44:23.246Z,0.83
2022-09-28T16:46:52.086Z,0.43
2022-09-28T16:49:19.860Z,0.50
2022-09-28T16:51:48.472Z,0.40
2022-09-28T16:54:36.483Z,1.23
2022-09-28T16:57:05.758Z,0.77
2022-09-28T16:59:34.671Z,0.57
2022-09-28T17:02:02.129Z,0.43
2022-09-28T17:04:29.575Z,0.53
2022-09-28T17:06:58.224Z,0.50
2022-09-28T17:09:25.707Z,0.50
2022-09-28T17:11:56.840Z,0.70
2022-09-28T17:14:24.853Z,0.40
2022-09-28T17:19:41.830Z,0.50
2022-09-28T17:22:09.868Z,0.40
2022-09-28T17:24:37.311Z,0.73
2022-09-28T17:27:06.911Z,0.40
2022-09-28T17:29:34.354Z,0.60
2022-09-28T17:32:04.893Z,1.33
2022-09-28T17:34:32.290Z,0.60
2022-09-28T17:36:59.723Z,0.50
2022-09-28T17:39:27.162Z,0.97
2022-09-28T17:41:54.570Z,0.80
2022-09-28T17:44:21.970Z,0.90
2022-09-28T17:46:51.132Z,0.57
2022-09-28T17:49:20.014Z,0.50
2022-09-28T17:51:47.427Z,0.60
2022-09-28T17:54:16.719Z,1.17
2022-09-28T17:56:44.131Z,0.60
2022-09-28T17:59:14.411Z,0.87
2022-09-28T18:01:42.019Z,0.60
2022-09-28T18:04:23.111Z,0.70
2022-09-28T18:06:56.619Z,1.30
2022-09-28T18:09:25.283Z,2.40
2022-09-28T18:12:00.397Z,1.20
2022-09-28T18:14:28.278Z,0.50
2022-09-28T18:16:55.801Z,0.70
2022-09-28T18:19:23.241Z,0.70
2022-09-28T18:21:50.641Z,0.83
2022-09-28T18:24:19.533Z,1.67
2022-09-28T18:26:47.008Z,0.47
2022-09-28T18:29:14.421Z,0.57
2022-09-28T18:31:41.823Z,1.03
2022-09-28T18:34:10.906Z,0.50
2022-09-28T18:36:38.327Z,0.50
2022-09-28T18:39:05.777Z,1.07
2022-09-28T18:41:34.507Z,0.77
2022-09-28T18:44:02.287Z,1.30
2022-09-28T18:46:34.528Z,0.87
2022-09-28T18:49:02.021Z,0.80
2022-09-28T18:51:29.952Z,0.87
2022-09-28T18:53:57.581Z,0.60
2022-09-28T18:56:25.487Z,0.50
2022-09-28T18:58:54.228Z,0.57
2022-09-28T19:01:31.065Z,0.60
2022-09-28T19:04:00.162Z,1.17
2022-09-28T19:06:27.927Z,0.70
2022-09-28T19:08:56.381Z,0.57
2022-09-28T19:11:24.712Z,0.63
2022-09-28T19:13:55.768Z,0.80
2022-09-28T19:16:25.710Z,0.83
2022-09-28T19:18:53.918Z,0.83
2022-09-28T19:21:23.375Z,0.70
2022-09-28T19:23:53.522Z,1.10
2022-09-28T19:26:24.663Z,2.77
2022-09-28T19:28:52.099Z,1.07
2022-09-28T19:31:23.382Z,0.63
2022-09-28T19:33:51.131Z,1.10
2022-09-28T19:36:21.094Z,1.20
2022-09-28T19:38:48.545Z,0.80
2022-09-28T19:41:39.453Z,0.73
2022-09-28T19:44:12.949Z,0.50
2022-09-28T19:46:42.040Z,1.10
2022-09-28T19:49:11.616Z,0.83
2022-09-28T19:51:51.433Z,1.07
2022-09-28T19:54:33.149Z,1.40
2022-09-28T19:57:07.576Z,1.40
2022-09-28T19:59:36.336Z,1.30
2022-09-28T20:02:05.423Z,1.63
2022-09-28T20:04:32.863Z,1.33
2022-09-28T20:07:00.835Z,2.60
2022-09-28T20:09:28.270Z,1.23
2022-09-28T20:11:55.682Z,1.67
2022-09-28T20:14:25.833Z,1.63
2022-09-28T20:16:54.033Z,1.50
2022-09-28T20:19:23.188Z,1.53
2022-09-28T20:21:51.004Z,1.37
2022-09-28T20:24:18.889Z,1.43
2022-09-28T20:26:46.754Z,1.13
2022-09-28T20:29:14.254Z,1.10
2022-09-28T20:31:42.535Z,1.63
2022-09-28T20:34:10.495Z,1.20
2022-09-28T20:36:42.270Z,1.80
2022-09-28T20:39:11.369Z,1.67
2022-09-28T20:41:38.874Z,1.40
2022-09-28T20:44:07.222Z,1.30
2022-09-28T20:46:35.215Z,1.37
2022-09-28T20:49:02.943Z,1.53
2022-09-28T20:51:30.373Z,1.10
2022-09-28T20:53:59.714Z,0.90
2022-09-28T20:56:28.645Z,1.73
2022-09-28T20:58:56.817Z,1.10
2022-09-28T21:01:25.707Z,1.43
2022-09-28T21:03:55.282Z,1.10
2022-09-28T21:06:24.434Z,1.57
2022-09-28T21:08:51.896Z,1.50
2022-09-28T21:11:23.058Z,1.20
2022-09-28T21:13:54.009Z,1.30
2022-09-28T21:16:21.547Z,1.27
2022-09-28T21:18:49.326Z,1.10
2022-09-28T21:21:18.314Z,1.00
2022-09-28T21:23:46.073Z,1.83
2022-09-28T21:26:15.657Z,1.30
2022-09-28T21:28:45.875Z,0.80
2022-09-28T21:31:14.984Z,2.67
2022-09-28T21:33:42.495Z,1.57
2022-09-28T21:36:11.139Z,2.00
2022-09-28T21:38:38.573Z,2.00
2022-09-28T21:41:06.330Z,2.23
2022-09-28T21:43:33.718Z,1.00
2022-09-28T21:46:02.571Z,1.57
2022-09-28T21:48:30.943Z,1.67
2022-09-28T21:51:00.143Z,1.47
2022-09-28T21:53:30.515Z,0.70
2022-09-28T21:55:59.314Z,0.90
2022-09-28T21:58:28.526Z,0.70
2022-09-28T22:01:06.150Z,1.87
2022-09-28T22:03:35.758Z,1.03
2022-09-28T22:06:03.262Z,0.87
2022-09-28T22:08:31.132Z,1.07
2022-09-28T22:11:00.615Z,0.80
2022-09-28T22:13:28.634Z,0.90
2022-09-28T22:15:57.663Z,1.10
2022-09-28T22:18:26.990Z,0.70
2022-09-28T22:21:00.150Z,0.97
2022-09-28T22:23:27.641Z,1.23
2022-09-28T22:26:01.662Z,1.33
2022-09-28T22:28:29.760Z,0.80
2022-09-28T22:30:58.046Z,0.70
2022-09-28T22:33:27.943Z,1.00
2022-09-28T22:35:55.925Z,0.90
2022-09-28T22:38:25.305Z,0.70
2022-09-28T22:40:54.915Z,2.93
2022-09-28T22:43:24.207Z,0.80
2022-09-28T22:45:51.816Z,0.90
2022-09-28T22:48:19.214Z,0.80
2022-09-28T22:50:51.888Z,1.20
2022-09-28T22:53:19.355Z,0.70
2022-09-28T22:55:46.777Z,0.93
2022-09-28T22:58:14.396Z,1.37
2022-09-28T23:00:42.368Z,0.60
2022-09-28T23:03:09.916Z,0.70
2022-09-28T23:05:37.385Z,0.70
2022-09-28T23:08:06.283Z,0.80
2022-09-28T23:10:34.119Z,1.00
2022-09-28T23:13:01.498Z,0.97
2022-09-28T23:15:29.641Z,1.03
2022-09-28T23:17:57.030Z,1.07
2022-09-28T23:20:25.370Z,0.90
2022-09-28T23:22:52.746Z,1.10
2022-09-28T23:25:21.488Z,0.93
2022-09-28T23:27:50.314Z,0.67
2022-09-28T23:30:19.951Z,0.60
2022-09-28T23:32:47.414Z,1.63
2022-09-28T23:35:15.258Z,1.00
2022-09-28T23:37:42.651Z,1.07
2022-09-28T23:40:10.835Z,0.93
2022-09-28T23:42:39.575Z,1.37
2022-09-28T23:45:07.798Z,0.80
2022-09-28T23:47:37.198Z,1.43
2022-09-28T23:50:05.080Z,0.60
2022-09-28T23:52:32.670Z,0.77
2022-09-28T23:55:00.071Z,0.80
2022-09-28T23:57:27.818Z,0.80
2022-09-28T23:59:56.555Z,0.93
